Alexandria, AL

1:44 AM CDT on July 28, 2016 (GMT -0500)
Weaver, Alabama | | Change Station

Elev 735 ft 33.75 °N, 85.84 °W | Updated 34 seconds ago

Mostly Cloudy
Mostly Cloudy
74.8 °F
Feels Like 74 °F
N
2.2
Wind Variable Wind from WSW

Today
High -- | Low -- °F
--% Chance of Precip.
Yesterday
High -- | Low -- °F
Precip. -- in
Pressure 30.03 in
Visibility 10.0 miles
Clouds Mostly Cloudy 2500 ft
Heat Index 74 °F
Dew Point 71 °F
Humidity 89%
Rainfall 0.00 in
Snow Depth Not available.
5:53 AM 7:46 PM
Waning Crescent, 35% visible
SPECI KANB 280638Z AUTO 24005KT 10SM BKN025 24/21 A3003 RMK AO2 T02390211
Pressure 30.03 in
Visibility 10.0 miles
Clouds Mostly Cloudy 2500 ft
Heat Index 74 °F
Dew Point 71 °F
Humidity 89%
Rainfall 0.00 in
Snow Depth Not available.
5:53 AM 7:46 PM
Waning Crescent, 35% visible
SPECI KANB 280638Z AUTO 24005KT 10SM BKN025 24/21 A3003 RMK AO2 T02390211

10-Day Weather Forecast

Almanac

Astronomy

Jul. 28, 2016 Rise Set
Actual Time
Civil Twilight
Nautical Twilight
Astronomical Twilight
Moon
Length of Visible Light
Length of Day
Tomorrow will be .
, % of the Moon is Illuminated

Today's Extremes

State Highs State Lows

Community

WunderPhotos

Upload Photos

1,928,064 photos uploaded!

WunderBlog® & News

Nearby

Air Quality

  Air Quality AQ Index Pollutant
Not available.

Snow Depth

Station Depth Elevation

Earthquake Activity

City Distance Mag. Time & Date
Minimum magnitude displayed is 2.5.

Coastal Water Temperatures

Place Temperature

Stations

Nearby Weather Stations

Station Location Temp. Windchill Dew Point Humidity Wind Precip. Elev Updated Type
                   

Watches & Warnings

There are currently no watches in effect.